createdAt,value
2023-05-16T00:02:26.641Z,8.60
2023-05-16T00:04:58.979Z,10.30
2023-05-16T00:07:30.909Z,9.00
2023-05-16T00:10:03.050Z,9.10
2023-05-16T00:12:36.818Z,9.20
2023-05-16T00:15:13.014Z,9.90
2023-05-16T00:17:46.942Z,9.60
2023-05-16T00:20:23.463Z,8.80
2023-05-16T00:22:55.969Z,10.40
2023-05-16T00:25:28.294Z,9.30
2023-05-16T00:28:00.274Z,9.70
2023-05-16T00:30:32.430Z,8.70
2023-05-16T00:33:04.590Z,11.20
2023-05-16T00:35:36.554Z,9.70
2023-05-16T00:38:08.622Z,8.80
2023-05-16T00:40:41.117Z,8.00
2023-05-16T00:43:14.960Z,8.90
2023-05-16T00:45:47.052Z,9.00
2023-05-16T00:48:19.860Z,8.50
2023-05-16T00:50:52.695Z,9.10
2023-05-16T00:53:26.664Z,8.60
2023-05-16T00:56:00.156Z,8.90
2023-05-16T00:58:34.353Z,8.70
2023-05-16T01:01:08.260Z,10.60
2023-05-16T01:03:42.794Z,8.40
2023-05-16T01:06:15.240Z,7.90
2023-05-16T01:08:47.276Z,8.70
2023-05-16T01:11:28.527Z,8.20
2023-05-16T01:14:12.122Z,8.70
2023-05-16T01:16:52.732Z,7.90
2023-05-16T01:19:48.389Z,8.30
2023-05-16T01:22:38.795Z,8.30
2023-05-16T01:25:23.278Z,9.20
2023-05-16T01:27:56.441Z,8.60
2023-05-16T01:30:28.620Z,9.40
2023-05-16T01:33:00.888Z,9.00
2023-05-16T01:35:33.096Z,8.90
2023-05-16T01:38:12.576Z,10.00
2023-05-16T01:40:53.230Z,9.80
2023-05-16T01:43:35.279Z,8.60
2023-05-16T01:46:12.057Z,8.80
2023-05-16T01:48:53.009Z,8.80
2023-05-16T01:51:30.668Z,9.10
2023-05-16T01:54:07.662Z,8.60
2023-05-16T01:56:40.459Z,8.30
2023-05-16T01:59:13.652Z,9.10
2023-05-16T02:01:45.582Z,9.70
2023-05-16T02:04:17.599Z,9.10
2023-05-16T02:06:50.294Z,9.60
2023-05-16T02:09:22.323Z,8.60
2023-05-16T02:11:54.629Z,9.80
2023-05-16T02:14:26.677Z,8.70
2023-05-16T02:16:58.822Z,8.90
2023-05-16T02:19:30.840Z,9.70
2023-05-16T02:22:02.811Z,8.50
2023-05-16T02:24:35.241Z,8.70
2023-05-16T02:27:08.311Z,9.10
2023-05-16T02:29:40.305Z,8.90
2023-05-16T02:32:12.444Z,9.20
2023-05-16T02:34:44.637Z,8.60
2023-05-16T02:37:16.744Z,8.70
2023-05-16T02:39:48.673Z,7.90
2023-05-16T02:42:21.452Z,8.00
2023-05-16T02:44:53.390Z,9.60
2023-05-16T02:47:25.679Z,10.20
2023-05-16T02:49:57.735Z,9.50
2023-05-16T02:52:29.675Z,10.60
2023-05-16T02:55:16.723Z,9.10
2023-05-16T02:57:53.000Z,9.70
2023-05-16T03:00:25.390Z,9.10
2023-05-16T03:02:58.225Z,8.90
2023-05-16T03:05:30.627Z,9.60
2023-05-16T03:08:02.792Z,8.60
2023-05-16T03:10:34.803Z,10.20
2023-05-16T03:13:06.977Z,8.20
2023-05-16T03:15:38.996Z,10.10
2023-05-16T03:18:11.770Z,9.70
2023-05-16T03:20:43.840Z,8.90
2023-05-16T03:23:15.961Z,9.90
2023-05-16T03:25:48.051Z,8.30
2023-05-16T03:28:20.143Z,8.40
2023-05-16T03:30:52.230Z,9.10
2023-05-16T03:33:24.932Z,9.10
2023-05-16T03:35:57.129Z,9.40
2023-05-16T03:38:29.123Z,9.30
2023-05-16T03:41:01.345Z,10.10
2023-05-16T03:43:33.412Z,9.90
2023-05-16T03:46:05.599Z,8.30
2023-05-16T03:48:37.386Z,8.70
2023-05-16T03:51:09.513Z,8.60
2023-05-16T03:53:41.570Z,8.90
2023-05-16T03:56:13.795Z,8.50
2023-05-16T03:58:46.109Z,8.50
2023-05-16T04:01:18.123Z,10.70
2023-05-16T04:03:50.913Z,9.60
2023-05-16T04:06:23.122Z,9.70
2023-05-16T04:08:55.201Z,10.40
2023-05-16T04:11:27.883Z,8.30
2023-05-16T04:14:01.924Z,13.20
2023-05-16T04:16:34.272Z,10.20
2023-05-16T04:19:06.407Z,8.60
2023-05-16T04:21:38.583Z,9.70
2023-05-16T04:24:11.683Z,13.40
2023-05-16T04:26:43.767Z,8.50
2023-05-16T04:29:15.746Z,8.90
2023-05-16T04:31:48.036Z,10.50
2023-05-16T04:34:20.151Z,9.60
2023-05-16T04:36:52.510Z,10.90
2023-05-16T04:39:24.588Z,11.30
2023-05-16T04:41:59.258Z,13.40
2023-05-16T04:44:31.777Z,10.20
2023-05-16T04:47:05.728Z,13.50
2023-05-16T04:49:37.959Z,12.80
2023-05-16T04:52:11.295Z,8.60
2023-05-16T04:54:44.479Z,10.20
2023-05-16T04:57:16.689Z,9.50
2023-05-16T04:59:48.905Z,9.10
2023-05-16T05:02:21.234Z,11.00
2023-05-16T05:04:55.009Z,11.00
2023-05-16T05:07:29.353Z,10.30
2023-05-16T05:10:03.260Z,8.50
2023-05-16T05:12:37.150Z,10.00
2023-05-16T05:15:10.828Z,11.00
2023-05-16T05:17:42.876Z,9.60
2023-05-16T05:20:16.395Z,9.30
2023-05-16T05:22:51.976Z,9.40
2023-05-16T05:25:24.094Z,8.50
2023-05-16T05:27:57.298Z,10.30
2023-05-16T05:30:29.573Z,9.70
2023-05-16T05:33:01.727Z,9.40
2023-05-16T05:35:33.774Z,10.00
2023-05-16T05:38:08.049Z,9.50
2023-05-16T05:40:40.432Z,10.30
2023-05-16T05:43:12.843Z,10.00
2023-05-16T05:45:46.304Z,9.00
2023-05-16T05:48:19.444Z,8.80
2023-05-16T05:50:53.621Z,9.00
2023-05-16T05:53:25.768Z,10.20
2023-05-16T05:55:57.799Z,10.10
2023-05-16T05:58:30.259Z,9.10
2023-05-16T06:01:02.589Z,10.10
2023-05-16T06:03:34.728Z,9.40
2023-05-16T06:06:07.622Z,9.60
2023-05-16T06:08:40.367Z,9.20
2023-05-16T06:11:12.445Z,11.40
2023-05-16T06:13:44.980Z,9.50
2023-05-16T06:16:17.287Z,9.30
2023-05-16T06:18:50.014Z,9.60
2023-05-16T06:21:22.359Z,10.10
2023-05-16T06:23:55.033Z,9.90
2023-05-16T06:26:27.527Z,9.10
2023-05-16T06:28:59.870Z,9.20
2023-05-16T06:31:33.042Z,10.30
2023-05-16T06:34:05.584Z,9.30
2023-05-16T06:36:37.587Z,9.10
2023-05-16T06:39:11.671Z,9.10
2023-05-16T06:41:44.429Z,9.20
2023-05-16T06:44:17.238Z,9.30
2023-05-16T06:46:53.542Z,10.30
2023-05-16T06:49:26.913Z,9.30
2023-05-16T06:52:00.020Z,9.80
2023-05-16T06:54:32.454Z,10.20
2023-05-16T06:57:09.833Z,10.10
2023-05-16T06:59:45.062Z,9.50
2023-05-16T07:02:17.641Z,8.90
2023-05-16T07:04:51.113Z,8.90
2023-05-16T07:07:24.696Z,9.80
2023-05-16T07:09:57.383Z,9.00
2023-05-16T07:12:30.366Z,10.30
2023-05-16T07:15:02.614Z,8.10
2023-05-16T07:17:35.755Z,8.60
2023-05-16T07:20:14.933Z,8.60
2023-05-16T07:22:47.368Z,8.40
2023-05-16T07:25:20.596Z,9.50
2023-05-16T07:27:53.290Z,9.00
2023-05-16T07:30:25.667Z,6.90
2023-05-16T07:33:00.906Z,7.50
2023-05-16T07:38:04.860Z,7.70
2023-05-16T07:40:37.450Z,8.00
2023-05-16T07:43:09.684Z,7.20
2023-05-16T07:45:42.371Z,7.30
2023-05-16T07:48:15.760Z,7.40
2023-05-16T07:50:48.357Z,6.80
2023-05-16T07:53:28.205Z,6.80
2023-05-16T07:56:02.987Z,8.40
2023-05-16T07:58:36.084Z,8.80
2023-05-16T08:01:09.212Z,8.10
2023-05-16T08:03:41.614Z,14.00
2023-05-16T08:06:14.570Z,13.80
2023-05-16T08:08:46.813Z,8.30
2023-05-16T08:11:22.697Z,9.30
2023-05-16T08:13:55.319Z,8.90
2023-05-16T08:16:27.687Z,8.50
2023-05-16T08:19:01.173Z,9.50
2023-05-16T08:21:36.600Z,8.20
2023-05-16T08:24:11.591Z,8.50
2023-05-16T08:26:44.201Z,9.30
2023-05-16T08:29:17.542Z,8.80
2023-05-16T08:31:50.258Z,9.70
2023-05-16T08:34:22.528Z,8.50
2023-05-16T08:36:56.397Z,9.90
2023-05-16T08:39:28.783Z,8.60
2023-05-16T08:42:02.226Z,9.80
2023-05-16T08:44:35.806Z,9.30
2023-05-16T08:47:14.983Z,9.50
2023-05-16T08:49:52.705Z,10.50
2023-05-16T08:52:28.877Z,10.30
2023-05-16T08:55:10.840Z,8.90
2023-05-16T08:57:44.695Z,10.90
2023-05-16T09:00:19.709Z,12.30
2023-05-16T09:02:54.030Z,10.70
2023-05-16T09:05:29.358Z,9.50
2023-05-16T09:10:32.668Z,9.10
2023-05-16T09:13:05.659Z,9.20
2023-05-16T09:15:38.055Z,10.10
2023-05-16T09:18:15.381Z,11.20
2023-05-16T09:20:53.764Z,9.20
2023-05-16T09:23:29.697Z,10.60
2023-05-16T09:26:02.341Z,9.40
2023-05-16T09:28:35.353Z,10.40
2023-05-16T09:31:21.004Z,10.20
2023-05-16T09:33:54.242Z,11.00
2023-05-16T09:36:26.876Z,10.50
2023-05-16T09:38:59.353Z,9.50
2023-05-16T09:41:34.263Z,10.30
2023-05-16T09:44:08.498Z,9.10
2023-05-16T09:46:42.718Z,7.70
2023-05-16T09:49:19.009Z,8.40
2023-05-16T09:51:52.663Z,9.60
2023-05-16T09:54:35.002Z,8.60
2023-05-16T09:57:08.620Z,8.00
2023-05-16T09:59:42.291Z,8.10
2023-05-16T10:02:16.200Z,7.70
2023-05-16T10:04:50.109Z,8.30
2023-05-16T10:07:24.838Z,11.40
2023-05-16T10:09:57.350Z,8.10
2023-05-16T10:12:33.279Z,8.90
2023-05-16T10:15:10.170Z,8.30
2023-05-16T10:17:45.618Z,8.50
2023-05-16T10:20:18.660Z,8.30
2023-05-16T10:22:54.927Z,7.00
2023-05-16T10:25:35.707Z,9.80
2023-05-16T10:28:11.400Z,6.90
2023-05-16T10:30:48.904Z,7.50
2023-05-16T10:33:22.453Z,7.40
2023-05-16T10:35:54.862Z,8.00
2023-05-16T10:38:28.794Z,9.10
2023-05-16T10:41:02.811Z,8.20
2023-05-16T10:43:40.460Z,9.00
2023-05-16T10:46:21.795Z,8.30
2023-05-16T10:48:57.120Z,8.50
2023-05-16T10:51:39.780Z,8.90
2023-05-16T10:54:16.208Z,8.40
2023-05-16T10:56:59.318Z,8.50
2023-05-16T10:59:44.566Z,8.10
2023-05-16T11:02:36.550Z,7.30
2023-05-16T11:05:20.516Z,7.00
2023-05-16T11:08:10.478Z,9.90
2023-05-16T11:10:45.032Z,9.60
2023-05-16T11:13:25.808Z,9.10
2023-05-16T11:16:31.546Z,8.60
2023-05-16T11:19:11.633Z,9.60
2023-05-16T11:22:23.098Z,8.80
2023-05-16T11:25:00.880Z,9.60
2023-05-16T11:27:35.036Z,9.60
2023-05-16T11:30:17.873Z,10.00
2023-05-16T11:32:51.132Z,10.00
2023-05-16T11:35:23.432Z,10.00
2023-05-16T11:37:56.536Z,9.60
2023-05-16T11:40:29.773Z,7.90
2023-05-16T11:43:07.113Z,7.20
2023-05-16T11:45:40.510Z,7.40
2023-05-16T11:48:19.146Z,7.80
2023-05-16T11:50:55.677Z,7.80
2023-05-16T11:53:28.744Z,6.80
2023-05-16T11:56:02.407Z,8.00
2023-05-16T11:58:34.741Z,8.80
2023-05-16T12:01:12.003Z,7.50
2023-05-16T12:03:44.690Z,8.30
2023-05-16T12:06:18.221Z,7.80
2023-05-16T12:08:55.586Z,7.70
2023-05-16T12:11:28.182Z,8.40
2023-05-16T12:14:00.384Z,8.10
2023-05-16T12:16:33.359Z,7.90
2023-05-16T12:19:06.540Z,8.50
2023-05-16T12:21:40.040Z,8.10
2023-05-16T12:24:18.195Z,7.40
2023-05-16T12:26:50.776Z,7.70
2023-05-16T12:29:26.751Z,7.80
2023-05-16T12:31:59.055Z,7.90
2023-05-16T12:34:32.858Z,6.70
2023-05-16T12:37:06.358Z,7.00
2023-05-16T12:39:41.154Z,8.20
2023-05-16T12:42:16.662Z,7.30
2023-05-16T12:44:50.315Z,6.70
2023-05-16T12:47:22.526Z,6.80
2023-05-16T12:49:54.960Z,7.10
2023-05-16T12:52:30.603Z,7.20
2023-05-16T12:55:03.313Z,8.40
2023-05-16T12:57:37.988Z,7.50
2023-05-16T13:00:15.019Z,8.10
2023-05-16T13:02:47.850Z,7.00
2023-05-16T13:05:23.581Z,7.60
2023-05-16T13:10:27.606Z,8.00
2023-05-16T13:13:00.445Z,7.90
2023-05-16T13:15:33.456Z,6.50
2023-05-16T13:18:05.813Z,8.00
2023-05-16T13:20:39.637Z,7.40
2023-05-16T13:23:12.789Z,6.60
2023-05-16T13:25:49.289Z,6.90
2023-05-16T13:28:22.273Z,6.10
2023-05-16T13:30:54.933Z,7.10
2023-05-16T13:33:27.876Z,7.10
2023-05-16T13:36:00.017Z,6.40
2023-05-16T13:38:33.577Z,6.80
2023-05-16T13:41:07.571Z,6.40
2023-05-16T13:43:44.141Z,7.80
2023-05-16T13:46:17.329Z,7.70
2023-05-16T13:48:53.961Z,6.50
2023-05-16T13:51:27.706Z,6.10
2023-05-16T13:54:00.836Z,8.30
2023-05-16T13:56:33.801Z,7.00
2023-05-16T13:59:07.426Z,5.90
2023-05-16T14:01:40.008Z,6.30
2023-05-16T14:04:12.632Z,6.10
2023-05-16T14:06:44.803Z,5.80
2023-05-16T14:09:17.404Z,6.20
2023-05-16T14:11:49.496Z,5.40
2023-05-16T14:14:21.938Z,6.10
2023-05-16T14:16:53.984Z,7.20
2023-05-16T14:19:26.117Z,6.40
2023-05-16T14:21:58.281Z,5.90
2023-05-16T14:24:31.321Z,7.20
2023-05-16T14:27:05.816Z,7.80
2023-05-16T14:29:39.707Z,7.00
2023-05-16T14:32:14.740Z,7.00
2023-05-16T14:34:47.924Z,7.40
2023-05-16T14:37:20.424Z,7.30
2023-05-16T14:39:53.112Z,7.70
2023-05-16T14:42:25.946Z,7.90
2023-05-16T14:44:58.304Z,8.40
2023-05-16T14:47:31.396Z,8.00
2023-05-16T14:50:03.667Z,7.70
2023-05-16T14:52:35.974Z,9.00
2023-05-16T14:55:08.913Z,9.50
2023-05-16T14:57:42.763Z,9.80
2023-05-16T15:00:19.440Z,11.80
2023-05-16T15:02:51.754Z,9.30
2023-05-16T15:05:25.725Z,8.30
2023-05-16T15:07:58.137Z,8.40
2023-05-16T15:10:30.432Z,8.00
2023-05-16T15:13:02.557Z,8.80
2023-05-16T15:15:34.611Z,7.80
2023-05-16T15:18:07.018Z,8.40
2023-05-16T15:20:39.207Z,8.20
2023-05-16T15:23:12.165Z,9.00
2023-05-16T15:25:44.178Z,10.50
2023-05-16T15:28:16.833Z,90.40
2023-05-16T15:30:48.862Z,314.00
2023-05-16T15:33:20.972Z,210.10
2023-05-16T15:35:53.177Z,46.40
2023-05-16T15:38:25.313Z,127.50
2023-05-16T15:41:14.041Z,112.30
2023-05-16T15:43:49.398Z,100.20
2023-05-16T15:46:21.558Z,73.70
2023-05-16T15:48:53.885Z,76.10
2023-05-16T15:51:25.943Z,106.40
2023-05-16T15:53:57.930Z,145.60
2023-05-16T15:56:29.964Z,54.50
2023-05-16T15:59:02.005Z,16.30
2023-05-16T16:01:34.060Z,22.50
2023-05-16T16:04:06.317Z,23.30
2023-05-16T16:06:38.425Z,14.60
2023-05-16T16:09:11.247Z,15.30
2023-05-16T16:11:43.482Z,14.40
2023-05-16T16:14:15.579Z,10.20
2023-05-16T16:16:47.965Z,10.90
2023-05-16T16:19:20.292Z,11.40
2023-05-16T16:21:52.423Z,12.80
2023-05-16T16:24:24.654Z,19.40
2023-05-16T16:26:56.966Z,12.60
2023-05-16T16:29:29.335Z,14.80
2023-05-16T16:32:01.377Z,15.30
2023-05-16T16:34:33.485Z,16.00
2023-05-16T16:37:05.686Z,15.20
2023-05-16T16:39:38.629Z,13.60
2023-05-16T16:42:11.369Z,9.70
2023-05-16T16:44:43.428Z,31.10
2023-05-16T16:47:15.921Z,116.80
2023-05-16T16:49:48.106Z,115.50
2023-05-16T16:52:20.321Z,21.40
2023-05-16T16:54:52.656Z,17.40
2023-05-16T16:57:24.799Z,27.60
2023-05-16T16:59:59.614Z,19.90
2023-05-16T17:02:31.874Z,19.80
2023-05-16T17:05:05.032Z,14.50
2023-05-16T17:07:37.392Z,15.20
2023-05-16T17:10:11.374Z,14.70
2023-05-16T17:12:49.218Z,12.50
2023-05-16T17:15:21.378Z,14.30
2023-05-16T17:17:53.506Z,16.10
2023-05-16T17:20:25.649Z,18.40
2023-05-16T17:22:57.617Z,31.10
2023-05-16T17:25:30.468Z,31.90
2023-05-16T17:28:02.636Z,36.90
2023-05-16T17:30:34.793Z,25.00
2023-05-16T17:33:08.424Z,42.10
2023-05-16T17:35:40.949Z,29.90
2023-05-16T17:38:13.553Z,25.80
2023-05-16T17:40:45.713Z,25.90
2023-05-16T17:43:17.887Z,34.30
2023-05-16T17:45:49.908Z,70.30
2023-05-16T17:48:21.906Z,57.10
2023-05-16T17:50:54.098Z,51.90
2023-05-16T17:53:26.773Z,44.10
2023-05-16T17:55:58.797Z,37.40
2023-05-16T17:58:30.896Z,44.60
2023-05-16T18:01:03.359Z,33.10
2023-05-16T18:03:35.801Z,35.20
2023-05-16T18:06:08.340Z,47.30
2023-05-16T18:08:40.877Z,49.10
2023-05-16T18:11:12.897Z,49.40
2023-05-16T18:13:46.027Z,36.70
2023-05-16T18:16:18.237Z,56.70
2023-05-16T18:18:51.640Z,42.00
2023-05-16T18:21:23.797Z,29.70
2023-05-16T18:23:59.237Z,25.60
2023-05-16T18:26:31.991Z,30.30
2023-05-16T18:29:04.140Z,24.30
2023-05-16T18:31:38.203Z,27.40
2023-05-16T18:34:11.558Z,24.30
2023-05-16T18:36:43.638Z,23.90
2023-05-16T18:39:15.774Z,23.50
2023-05-16T18:41:48.508Z,28.50
2023-05-16T18:44:20.803Z,31.40
2023-05-16T18:46:52.840Z,30.70
2023-05-16T18:49:24.870Z,46.20
2023-05-16T18:51:57.978Z,28.70
2023-05-16T18:54:30.391Z,25.20
2023-05-16T18:57:03.689Z,21.50
2023-05-16T18:59:36.286Z,23.20
2023-05-16T19:02:08.948Z,18.50
2023-05-16T19:04:41.213Z,23.30
2023-05-16T19:07:14.058Z,25.70
2023-05-16T19:09:47.135Z,28.40
2023-05-16T19:12:20.770Z,32.50
2023-05-16T19:14:54.714Z,22.80
2023-05-16T19:17:27.108Z,24.00
2023-05-16T19:19:59.471Z,22.40
2023-05-16T19:22:31.673Z,19.80
2023-05-16T19:25:03.846Z,20.10
2023-05-16T19:27:35.905Z,15.50
2023-05-16T19:30:10.170Z,11.60
2023-05-16T19:32:42.158Z,10.90
2023-05-16T19:35:14.338Z,12.60
2023-05-16T19:37:49.623Z,11.90
2023-05-16T19:40:48.077Z,12.00
2023-05-16T19:43:20.767Z,12.30
2023-05-16T19:45:53.192Z,12.80
2023-05-16T19:48:25.284Z,11.60
2023-05-16T19:50:57.668Z,13.30
2023-05-16T19:53:29.705Z,38.20
2023-05-16T19:56:02.364Z,20.50
2023-05-16T19:58:34.369Z,16.60
2023-05-16T20:01:06.456Z,11.90
2023-05-16T20:03:38.594Z,11.90
2023-05-16T20:06:10.994Z,10.70
2023-05-16T20:08:43.575Z,10.40
2023-05-16T20:11:15.744Z,10.90
2023-05-16T20:13:47.801Z,12.00
2023-05-16T20:16:21.997Z,9.90
2023-05-16T20:18:54.816Z,9.60
2023-05-16T20:21:27.316Z,9.10
2023-05-16T20:23:59.387Z,10.20
2023-05-16T20:26:31.686Z,8.70
2023-05-16T20:29:03.794Z,10.70
2023-05-16T20:31:35.982Z,13.50
2023-05-16T20:34:08.070Z,18.40
2023-05-16T20:36:40.105Z,15.20
2023-05-16T20:39:12.154Z,13.80
2023-05-16T20:41:44.465Z,12.50
2023-05-16T20:44:18.349Z,14.80
2023-05-16T20:46:50.826Z,13.70
2023-05-16T20:49:22.900Z,14.30
2023-05-16T20:51:54.912Z,13.90
2023-05-16T20:54:27.308Z,14.70
2023-05-16T20:56:59.629Z,16.60
2023-05-16T20:59:32.506Z,17.80
2023-05-16T21:02:05.855Z,17.20
2023-05-16T21:04:38.277Z,17.40
2023-05-16T21:07:11.555Z,17.40
2023-05-16T21:09:44.111Z,18.80
2023-05-16T21:12:16.122Z,16.50
2023-05-16T21:14:48.092Z,20.10
2023-05-16T21:17:20.520Z,16.40
2023-05-16T21:19:54.526Z,18.70
2023-05-16T21:22:26.816Z,14.40
2023-05-16T21:24:58.997Z,15.20
2023-05-16T21:27:31.063Z,17.30
2023-05-16T21:30:03.187Z,16.50
2023-05-16T21:32:36.439Z,17.20
2023-05-16T21:35:09.808Z,18.90
2023-05-16T21:37:41.963Z,18.40
2023-05-16T21:40:19.187Z,18.00
2023-05-16T21:42:51.317Z,17.30
2023-05-16T21:45:23.449Z,17.60
2023-05-16T21:47:55.500Z,19.10
2023-05-16T21:50:27.782Z,18.90
2023-05-16T21:52:59.935Z,17.90
2023-05-16T21:55:31.922Z,17.50
2023-05-16T21:58:03.929Z,19.60
2023-05-16T22:00:36.601Z,20.60
2023-05-16T22:03:10.917Z,18.90
2023-05-16T22:05:43.022Z,19.80
2023-05-16T22:08:15.053Z,19.00
2023-05-16T22:10:47.298Z,19.30
2023-05-16T22:13:20.294Z,19.10
2023-05-16T22:16:04.000Z,19.40
2023-05-16T22:18:37.144Z,20.60
2023-05-16T22:21:09.606Z,21.00
2023-05-16T22:23:41.603Z,21.70
2023-05-16T22:26:14.334Z,17.00
2023-05-16T22:28:46.308Z,18.80
2023-05-16T22:31:18.377Z,17.20
2023-05-16T22:33:50.676Z,16.90
2023-05-16T22:36:22.673Z,20.80
2023-05-16T22:38:54.681Z,19.00
2023-05-16T22:41:29.264Z,21.00
2023-05-16T22:44:01.263Z,20.60
2023-05-16T22:46:33.344Z,19.60
2023-05-16T22:49:05.396Z,18.40
2023-05-16T22:51:37.460Z,20.40
2023-05-16T22:54:09.913Z,19.60
2023-05-16T22:56:42.038Z,18.10
2023-05-16T22:59:14.955Z,18.60
2023-05-16T23:01:46.977Z,19.50
2023-05-16T23:04:19.097Z,16.20
2023-05-16T23:06:51.442Z,19.30
2023-05-16T23:09:23.560Z,17.20
2023-05-16T23:11:55.617Z,17.10
2023-05-16T23:14:27.745Z,17.60
2023-05-16T23:16:59.724Z,16.40
2023-05-16T23:19:31.988Z,15.40
2023-05-16T23:22:06.194Z,14.60
2023-05-16T23:24:38.353Z,14.70
2023-05-16T23:27:10.355Z,14.20
2023-05-16T23:29:42.339Z,13.70
2023-05-16T23:32:14.881Z,13.30
2023-05-16T23:34:46.906Z,12.40
2023-05-16T23:37:19.022Z,12.70
2023-05-16T23:39:51.095Z,13.10
2023-05-16T23:42:23.216Z,13.20
2023-05-16T23:44:55.259Z,13.30
2023-05-16T23:47:27.701Z,11.00
2023-05-16T23:49:59.747Z,10.90
2023-05-16T23:52:31.817Z,10.50
2023-05-16T23:55:03.981Z,9.80
2023-05-16T23:57:35.988Z,10.30
